Crown Princess — ZCDM6 — position and weather

sailwx.info

Track history (hours):
 
Tides and Currents Weather Stations Pressure Air Temp Water Temp Dewpoint Dewpoint Depression Visibility Wind Speed Wind Dir Waves Ship Positions

Crown Princess

Last reported at 2014-Oct-02 09:34 UTC. Time now 2014-Oct-02 10:29 UTC.
Position N 33°03' W 117°52'.

Type: Ship. MMSI: 310500000.

Date/timePositionNaut miles runAvg speedWind from/ knotsBaromVisibWave heightAir tempDewpointWater temp
2014-Oct-02 09:34N 33°03' W 117°52'1616.3
2014-Oct-02 08:34N 33°16' W 118°04'1514.5
2014-Oct-02 07:33N 33°29' W 118°11'1313.1
2014-Oct-02 06:34N 33°37' W 118°23'1313.4
2014-Oct-02 05:34N 33°44' W 118°37'1615.5
2014-Oct-02 04:33N 33°52' W 118°53'1716.9
2014-Oct-02 03:33N 34°00' W 119°11'1716.8
2014-Oct-02 02:33N 34°06' W 119°30'1413.8
2014-Oct-02 01:33N 34°16' W 119°41'8 6.5
2014-Oct-02 00:22N 34°24' W 119°41'0 0.0
2014-Oct-01 23:31N 34°24' W 119°41'0 0.0
2014-Oct-01 22:31N 34°24' W 119°41'0 0.0
2014-Oct-01 21:33N 34°24' W 119°41'0 0.0
2014-Oct-01 20:18N 34°24' W 119°41'0 0.0
2014-Oct-01 19:17N 34°24' W 119°41'0 0.0
2014-Oct-01 17:10N 34°24' W 119°41'0 0.0
2014-Oct-01 16:28N 34°24' W 119°41'0 0.0
2014-Oct-01 15:22N 34°24' W 119°41'0 0.0
2014-Oct-01 14:30N 34°24' W 119°41'2 2.2
2014-Oct-01 13:33N 34°22' W 119°41'10 9.7
2014-Oct-01 12:33N 34°19' W 119°52'1010.1
2014-Oct-01 11:33N 34°19' W 120°05'1010.0
2014-Oct-01 10:32N 34°18' W 120°17'1010.0
2014-Oct-01 09:33N 34°19' W 120°29'18 8.9
2014-Oct-01 07:29N 34°24' W 120°50'12 8.6
2014-Oct-01 06:08N 34°32' W 121°00'15 9.6
2014-Oct-01 04:33N 34°44' W 121°12'10 9.7
2014-Oct-01 03:33N 34°51' W 121°20'9 9.4
2014-Oct-01 02:33N 34°58' W 121°27'9 9.0
2014-Oct-01 01:33N 35°05' W 121°34'10 9.5
2014-Oct-01 00:33N 35°12' W 121°42'10 9.9
2014-Sep-30 23:33N 35°20' W 121°49'10 9.9
2014-Sep-30 22:33N 35°28' W 121°57'10 9.6
2014-Sep-30 21:33N 35°35' W 122°05'10 9.3
2014-Sep-30 20:31N 35°42' W 122°12'9 9.0
2014-Sep-30 19:32N 35°49' W 122°19'9 9.5
2014-Sep-30 18:33N 35°56' W 122°27'10 9.6
2014-Sep-30 17:33N 36°04' W 122°34'10 9.5
2014-Sep-30 16:33N 36°11' W 122°42'11 9.6
2014-Sep-30 15:24N 36°19' W 122°51'12 9.3
2014-Sep-30 14:07N 36°29' W 122°60'5 9.3
2014-Sep-30 13:32N 36°34' W 122°59'9 9.4
2014-Sep-30 12:32N 36°44' W 122°58'10 9.4
2014-Sep-30 11:26N 36°54' W 122°56'9 9.8
2014-Sep-30 10:33N 37°02' W 122°54'1412.9
2014-Sep-30 09:29N 37°14' W 122°46'1312.6
2014-Sep-30 08:26N 37°28' W 122°43'1112.9
2014-Sep-30 07:33N 37°39' W 122°44'1211.8
2014-Sep-30 06:33N 37°47' W 122°33'7 7.4
2014-Sep-30 05:33N 37°48' W 122°24'0 0.0
2014-Sep-30 04:33N 37°48' W 122°24'0 0.0
2014-Sep-30 03:32N 37°48' W 122°24'0 0.0
2014-Sep-30 02:32N 37°48' W 122°24'0 0.0
2014-Sep-30 01:31N 37°48' W 122°24'0 0.0
2014-Sep-30 00:31N 37°48' W 122°24'0 0.0
2014-Sep-29 23:30N 37°48' W 122°24'0 0.0
2014-Sep-29 22:30N 37°48' W 122°24'0 0.0
2014-Sep-29 21:33N 37°48' W 122°24'0 0.0
2014-Sep-29 20:32N 37°48' W 122°24'0 0.0
2014-Sep-29 19:32N 37°48' W 122°24'0 0.0
2014-Sep-29 18:28N 37°48' W 122°24'0 0.0
2014-Sep-29 17:31N 37°48' W 122°24'0 0.0
2014-Sep-29 16:33N 37°48' W 122°24'0 0.0
2014-Sep-29 15:33N 37°48' W 122°24'0 0.0
2014-Sep-29 14:33N 37°48' W 122°24'0 0.2
2014-Sep-29 13:33N 37°48' W 122°24'8 7.7
2014-Sep-29 12:33N 37°47' W 122°33'9 9.3
2014-Sep-29 11:33N 37°39' W 122°40'1110.5
2014-Sep-29 10:33N 37°29' W 122°40'3310.6
2014-Sep-29 07:26N 36°57' W 122°52'1010.9
2014-Sep-29 06:32N 36°48' W 122°53'1111.3
2014-Sep-29 05:33N 36°37' W 122°51'1211.9
2014-Sep-29 04:33N 36°25' W 122°46'1211.5
2014-Sep-29 03:33N 36°15' W 122°41'1111.2
2014-Sep-29 02:33N 36°05' W 122°34'1211.7
2014-Sep-29 01:33N 35°56' W 122°25'1211.9
2014-Sep-29 00:33N 35°46' W 122°18'2411.8
2014-Sep-28 22:33N 35°25' W 122°04'1111.4
2014-Sep-28 21:33N 35°15' W 121°57'1110.8
2014-Sep-28 20:31N 35°05' W 121°50'13210.0
2014-Sep-28 07:24N 33°37' W 119°52'8111.1
2014-Sep-28 00:07N 33°41' W 118°15'4 6.3
2014-Sep-27 23:33N 33°45' W 118°16'0 0.3
2014-Sep-27 22:33N 33°45' W 118°17'0 0.0
2014-Sep-27 21:33N 33°45' W 118°17'0 0.0
2014-Sep-27 20:32N 33°45' W 118°17'0 0.0
2014-Sep-27 19:32N 33°45' W 118°17'0 0.0
2014-Sep-27 18:31N 33°45' W 118°17'0 0.0
2014-Sep-27 17:31N 33°45' W 118°17'0 0.0
2014-Sep-27 16:33N 33°45' W 118°17'0 0.0
2014-Sep-27 15:33N 33°45' W 118°17'0 0.0
2014-Sep-27 14:33N 33°45' W 118°17'0 0.0
2014-Sep-27 13:30N 33°45' W 118°17'5 5.3
2014-Sep-27 12:30N 33°41' W 118°13'2010.4
2014-Sep-27 10:33N 33°22' W 118°04'1111.0
2014-Sep-27 09:33N 33°12' W 117°58'1211.7
2014-Sep-27 08:33N 33°01' W 117°54'1212.1
2014-Sep-27 07:33N 32°49' W 117°50'1212.0
2014-Sep-27 06:33N 32°38' W 117°45'1414.1
2014-Sep-27 05:34N 32°26' W 117°37'2015.8
2014-Sep-27 04:18N 32°10' W 117°22'1613.2
2014-Sep-27 03:04N 32°00' W 117°07'22 1.5
2014-Sep-26 12:33N 31°47' W 116°46'1010.3
2014-Sep-26 11:33N 31°42' W 116°58'9 9.0
2014-Sep-26 10:34N 31°44' W 117°08'10 9.7
2014-Sep-26 09:32N 31°53' W 117°13'9 9.5
2014-Sep-26 08:33N 32°01' W 117°18'9 9.3
2014-Sep-26 07:33N 32°09' W 117°24'9 9.4
2014-Sep-26 06:33N 32°17' W 117°29'9 8.7
2014-Sep-26 05:33N 32°26' W 117°28'1010.2
2014-Sep-26 04:32N 32°33' W 117°19'9 9.2
2014-Sep-26 03:33N 32°41' W 117°14'4 3.5
2014-Sep-26 02:33N 32°43' W 117°10'0 0.0
2014-Sep-26 01:33N 32°43' W 117°10'0 0.0
2014-Sep-26 00:29N 32°43' W 117°10'0 0.0
2014-Sep-25 23:32N 32°43' W 117°10'0 0.0
2014-Sep-25 22:28N 32°43' W 117°10'0 0.0
2014-Sep-25 21:33N 32°43' W 117°10'0 0.0
2014-Sep-25 20:30N 32°43' W 117°10'0 0.0
2014-Sep-25 19:32N 32°43' W 117°10'0 0.0
2014-Sep-25 18:32N 32°43' W 117°10'0 0.0
2014-Sep-25 17:32N 32°43' W 117°10'0 0.0
2014-Sep-25 16:31N 32°43' W 117°10'0 0.0
2014-Sep-25 15:31N 32°43' W 117°10'0 0.0
2014-Sep-25 14:33N 32°43' W 117°10'0 0.3
2014-Sep-25 13:33N 32°43' W 117°11'8 8.3
2014-Sep-25 12:33N 32°36' W 117°16'1313.2
2014-Sep-25 11:34N 32°42' W 117°30'1313.4
2014-Sep-25 10:34N 32°51' W 117°41'1313.1
2014-Sep-25 09:34N 33°02' W 117°51'1313.1
2014-Sep-25 08:34N 33°12' W 118°00'1313.4
2014-Sep-25 07:33N 33°24' W 118°08'1413.8
2014-Sep-25 06:33N 33°35' W 118°18'1414.3
2014-Sep-25 05:33N 33°42' W 118°33'1514.6
2014-Sep-25 04:33N 33°49' W 118°48'1717.2
2014-Sep-25 03:33N 33°58' W 119°06'1717.0
2014-Sep-25 02:33N 34°05' W 119°25'1515.3
2014-Sep-25 01:33N 34°13' W 119°41'11 8.4
2014-Sep-25 00:16N 34°24' W 119°41'0 0.0
2014-Sep-24 23:31N 34°24' W 119°41'0 0.0
2014-Sep-24 22:33N 34°24' W 119°41'0 0.0
2014-Sep-24 21:30N 34°24' W 119°41'0 0.0
2014-Sep-24 20:32N 34°24' W 119°41'0 0.0
2014-Sep-24 19:29N 34°24' W 119°41'0 0.0
2014-Sep-24 17:04N 34°24' W 119°41'0 0.0
2014-Sep-24 16:33N 34°24' W 119°41'0 0.0
2014-Sep-24 15:30N 34°24' W 119°41'0 0.1
2014-Sep-24 14:33N 34°24' W 119°41'2 2.2
2014-Sep-24 13:33N 34°22' W 119°41'1010.0
2014-Sep-24 12:33N 34°19' W 119°53'1111.1
2014-Sep-24 11:33N 34°19' W 120°06'1010.2
2014-Sep-24 10:32N 34°17' W 120°18'1411.4
2014-Sep-24 09:18N 34°20' W 120°35'36 9.6
2014-Sep-24 05:33N 34°42' W 121°10'9 9.1
2014-Sep-24 04:33N 34°49' W 121°17'9 8.7
2014-Sep-24 03:33N 34°55' W 121°24'9 9.2
2014-Sep-24 02:33N 35°02' W 121°31'9 9.3
2014-Sep-24 01:33N 35°10' W 121°39'10 9.6
2014-Sep-24 00:33N 35°17' W 121°46'9 9.2
2014-Sep-23 23:33N 35°24' W 121°54'9 9.0
2014-Sep-23 22:32N 35°31' W 122°01'8 8.6
2014-Sep-23 21:33N 35°37' W 122°07'2 3.1
2014-Sep-23 21:00N 35°36' W 122°06'1124.3 300 / 111024.710.8 0.522.518.618.0
2014-Sep-23 20:33N 35°44' W 122°14'9 8.9
2014-Sep-23 19:33N 35°51' W 122°21'9 8.9
2014-Sep-23 18:33N 35°58' W 122°28'9 9.1
2014-Sep-23 17:33N 36°05' W 122°36'9 8.9
2014-Sep-23 16:33N 36°12' W 122°43'9 8.9
2014-Sep-23 15:33N 36°19' W 122°50'11 9.5
2014-Sep-23 14:22N 36°27' W 122°59'7 9.1
2014-Sep-23 13:33N 36°35' W 122°59'9 9.5
2014-Sep-23 12:33N 36°44' W 122°57'10 9.6
2014-Sep-23 11:33N 36°53' W 122°56'1010.1
2014-Sep-23 10:33N 37°03' W 122°53'1313.2
2014-Sep-23 09:33N 37°15' W 122°46'1312.9
2014-Sep-23 08:33N 37°28' W 122°43'1313.1
2014-Sep-23 07:33N 37°41' W 122°43'1111.4
2014-Sep-23 06:34N 37°48' W 122°32'6 5.9
2014-Sep-23 05:33N 37°48' W 122°24'0 0.0
2014-Sep-23 04:33N 37°48' W 122°24'0 0.0
2014-Sep-23 03:27N 37°48' W 122°24'0 0.0
2014-Sep-23 02:32N 37°48' W 122°24'0 0.0
2014-Sep-23 01:32N 37°48' W 122°24'0 0.0
2014-Sep-23 00:31N 37°48' W 122°24'0 0.0
2014-Sep-22 23:31N 37°48' W 122°24'0 0.0
2014-Sep-22 22:33N 37°48' W 122°24'0 0.0
2014-Sep-22 21:33N 37°48' W 122°24'0 0.0
2014-Sep-22 20:33N 37°48' W 122°24'0 0.0
2014-Sep-22 19:26N 37°48' W 122°24'0 0.0
2014-Sep-22 18:32N 37°48' W 122°24'0 0.0
2014-Sep-22 17:31N 37°48' W 122°24'0 0.0
2014-Sep-22 16:31N 37°48' W 122°24'0 0.0
2014-Sep-22 15:33N 37°48' W 122°24'0 0.0
2014-Sep-22 14:33N 37°48' W 122°24'0 0.0
2014-Sep-22 13:33N 37°48' W 122°24'4 4.2
2014-Sep-22 12:34N 37°49' W 122°29'1111.3
2014-Sep-22 11:33N 37°42' W 122°41'1211.2
2014-Sep-22 10:31N 37°30' W 122°40'  
Track history (hours):
 
Tides and Currents Weather Stations Pressure Air Temp Water Temp Dewpoint Dewpoint Depression Visibility Wind Speed Wind Dir Waves Ship Positions

Crown Princess

Last reported at 2014-Oct-02 09:34 UTC. Time now 2014-Oct-02 10:29 UTC.
Position N 33°03' W 117°52'.

Type: Ship. MMSI: 310500000.

Date/timePositionNaut miles runAvg speedWind from/ knotsBaromVisibWave heightAir tempDewpointWater temp
2014-Oct-02 09:34N 33°03' W 117°52'1616.3
2014-Oct-02 08:34N 33°16' W 118°04'1514.5
2014-Oct-02 07:33N 33°29' W 118°11'1313.1
2014-Oct-02 06:34N 33°37' W 118°23'1313.4
2014-Oct-02 05:34N 33°44' W 118°37'1615.5
2014-Oct-02 04:33N 33°52' W 118°53'1716.9
2014-Oct-02 03:33N 34°00' W 119°11'1716.8
2014-Oct-02 02:33N 34°06' W 119°30'1413.8
2014-Oct-02 01:33N 34°16' W 119°41'8 6.5
2014-Oct-02 00:22N 34°24' W 119°41'0 0.0
2014-Oct-01 23:31N 34°24' W 119°41'0 0.0
2014-Oct-01 22:31N 34°24' W 119°41'0 0.0
2014-Oct-01 21:33N 34°24' W 119°41'0 0.0
2014-Oct-01 20:18N 34°24' W 119°41'0 0.0
2014-Oct-01 19:17N 34°24' W 119°41'0 0.0
2014-Oct-01 17:10N 34°24' W 119°41'0 0.0
2014-Oct-01 16:28N 34°24' W 119°41'0 0.0
2014-Oct-01 15:22N 34°24' W 119°41'0 0.0
2014-Oct-01 14:30N 34°24' W 119°41'2 2.2
2014-Oct-01 13:33N 34°22' W 119°41'10 9.7
2014-Oct-01 12:33N 34°19' W 119°52'1010.1
2014-Oct-01 11:33N 34°19' W 120°05'1010.0
2014-Oct-01 10:32N 34°18' W 120°17'1010.0
2014-Oct-01 09:33N 34°19' W 120°29'18 8.9
2014-Oct-01 07:29N 34°24' W 120°50'12 8.6
2014-Oct-01 06:08N 34°32' W 121°00'15 9.6
2014-Oct-01 04:33N 34°44' W 121°12'10 9.7
2014-Oct-01 03:33N 34°51' W 121°20'9 9.4
2014-Oct-01 02:33N 34°58' W 121°27'9 9.0
2014-Oct-01 01:33N 35°05' W 121°34'10 9.5
2014-Oct-01 00:33N 35°12' W 121°42'10 9.9
2014-Sep-30 23:33N 35°20' W 121°49'10 9.9
2014-Sep-30 22:33N 35°28' W 121°57'10 9.6
2014-Sep-30 21:33N 35°35' W 122°05'10 9.3
2014-Sep-30 20:31N 35°42' W 122°12'9 9.0
2014-Sep-30 19:32N 35°49' W 122°19'9 9.5
2014-Sep-30 18:33N 35°56' W 122°27'10 9.6
2014-Sep-30 17:33N 36°04' W 122°34'10 9.5
2014-Sep-30 16:33N 36°11' W 122°42'11 9.6
2014-Sep-30 15:24N 36°19' W 122°51'12 9.3
2014-Sep-30 14:07N 36°29' W 122°60'5 9.3
2014-Sep-30 13:32N 36°34' W 122°59'9 9.4
2014-Sep-30 12:32N 36°44' W 122°58'10 9.4
2014-Sep-30 11:26N 36°54' W 122°56'9 9.8
2014-Sep-30 10:33N 37°02' W 122°54'1412.9
2014-Sep-30 09:29N 37°14' W 122°46'1312.6
2014-Sep-30 08:26N 37°28' W 122°43'1112.9
2014-Sep-30 07:33N 37°39' W 122°44'1211.8
2014-Sep-30 06:33N 37°47' W 122°33'7 7.4
2014-Sep-30 05:33N 37°48' W 122°24'0 0.0
2014-Sep-30 04:33N 37°48' W 122°24'0 0.0
2014-Sep-30 03:32N 37°48' W 122°24'0 0.0
2014-Sep-30 02:32N 37°48' W 122°24'0 0.0
2014-Sep-30 01:31N 37°48' W 122°24'0 0.0
2014-Sep-30 00:31N 37°48' W 122°24'0 0.0
2014-Sep-29 23:30N 37°48' W 122°24'0 0.0
2014-Sep-29 22:30N 37°48' W 122°24'0 0.0
2014-Sep-29 21:33N 37°48' W 122°24'0 0.0
2014-Sep-29 20:32N 37°48' W 122°24'0 0.0
2014-Sep-29 19:32N 37°48' W 122°24'0 0.0
2014-Sep-29 18:28N 37°48' W 122°24'0 0.0
2014-Sep-29 17:31N 37°48' W 122°24'0 0.0
2014-Sep-29 16:33N 37°48' W 122°24'0 0.0
2014-Sep-29 15:33N 37°48' W 122°24'0 0.0
2014-Sep-29 14:33N 37°48' W 122°24'0 0.2
2014-Sep-29 13:33N 37°48' W 122°24'8 7.7
2014-Sep-29 12:33N 37°47' W 122°33'9 9.3
2014-Sep-29 11:33N 37°39' W 122°40'1110.5
2014-Sep-29 10:33N 37°29' W 122°40'3310.6
2014-Sep-29 07:26N 36°57' W 122°52'1010.9
2014-Sep-29 06:32N 36°48' W 122°53'1111.3
2014-Sep-29 05:33N 36°37' W 122°51'1211.9
2014-Sep-29 04:33N 36°25' W 122°46'1211.5
2014-Sep-29 03:33N 36°15' W 122°41'1111.2
2014-Sep-29 02:33N 36°05' W 122°34'1211.7
2014-Sep-29 01:33N 35°56' W 122°25'1211.9
2014-Sep-29 00:33N 35°46' W 122°18'2411.8
2014-Sep-28 22:33N 35°25' W 122°04'1111.4
2014-Sep-28 21:33N 35°15' W 121°57'1110.8
2014-Sep-28 20:31N 35°05' W 121°50'13210.0
2014-Sep-28 07:24N 33°37' W 119°52'8111.1
2014-Sep-28 00:07N 33°41' W 118°15'4 6.3
2014-Sep-27 23:33N 33°45' W 118°16'0 0.3
2014-Sep-27 22:33N 33°45' W 118°17'0 0.0
2014-Sep-27 21:33N 33°45' W 118°17'0 0.0
2014-Sep-27 20:32N 33°45' W 118°17'0 0.0
2014-Sep-27 19:32N 33°45' W 118°17'0 0.0
2014-Sep-27 18:31N 33°45' W 118°17'0 0.0
2014-Sep-27 17:31N 33°45' W 118°17'0 0.0
2014-Sep-27 16:33N 33°45' W 118°17'0 0.0
2014-Sep-27 15:33N 33°45' W 118°17'0 0.0
2014-Sep-27 14:33N 33°45' W 118°17'0 0.0
2014-Sep-27 13:30N 33°45' W 118°17'5 5.3
2014-Sep-27 12:30N 33°41' W 118°13'2010.4
2014-Sep-27 10:33N 33°22' W 118°04'1111.0
2014-Sep-27 09:33N 33°12' W 117°58'1211.7
2014-Sep-27 08:33N 33°01' W 117°54'1212.1
2014-Sep-27 07:33N 32°49' W 117°50'1212.0
2014-Sep-27 06:33N 32°38' W 117°45'1414.1
2014-Sep-27 05:34N 32°26' W 117°37'2015.8
2014-Sep-27 04:18N 32°10' W 117°22'1613.2
2014-Sep-27 03:04N 32°00' W 117°07'22 1.5
2014-Sep-26 12:33N 31°47' W 116°46'1010.3
2014-Sep-26 11:33N 31°42' W 116°58'9 9.0
2014-Sep-26 10:34N 31°44' W 117°08'10 9.7
2014-Sep-26 09:32N 31°53' W 117°13'9 9.5
2014-Sep-26 08:33N 32°01' W 117°18'9 9.3
2014-Sep-26 07:33N 32°09' W 117°24'9 9.4
2014-Sep-26 06:33N 32°17' W 117°29'9 8.7
2014-Sep-26 05:33N 32°26' W 117°28'1010.2
2014-Sep-26 04:32N 32°33' W 117°19'9 9.2
2014-Sep-26 03:33N 32°41' W 117°14'4 3.5
2014-Sep-26 02:33N 32°43' W 117°10'0 0.0
2014-Sep-26 01:33N 32°43' W 117°10'0 0.0
2014-Sep-26 00:29N 32°43' W 117°10'0 0.0
2014-Sep-25 23:32N 32°43' W 117°10'0 0.0
2014-Sep-25 22:28N 32°43' W 117°10'0 0.0
2014-Sep-25 21:33N 32°43' W 117°10'0 0.0
2014-Sep-25 20:30N 32°43' W 117°10'0 0.0
2014-Sep-25 19:32N 32°43' W 117°10'0 0.0
2014-Sep-25 18:32N 32°43' W 117°10'0 0.0
2014-Sep-25 17:32N 32°43' W 117°10'0 0.0
2014-Sep-25 16:31N 32°43' W 117°10'0 0.0
2014-Sep-25 15:31N 32°43' W 117°10'0 0.0
2014-Sep-25 14:33N 32°43' W 117°10'0 0.3
2014-Sep-25 13:33N 32°43' W 117°11'8 8.3
2014-Sep-25 12:33N 32°36' W 117°16'1313.2
2014-Sep-25 11:34N 32°42' W 117°30'1313.4
2014-Sep-25 10:34N 32°51' W 117°41'1313.1
2014-Sep-25 09:34N 33°02' W 117°51'1313.1
2014-Sep-25 08:34N 33°12' W 118°00'1313.4
2014-Sep-25 07:33N 33°24' W 118°08'1413.8
2014-Sep-25 06:33N 33°35' W 118°18'1414.3
2014-Sep-25 05:33N 33°42' W 118°33'1514.6
2014-Sep-25 04:33N 33°49' W 118°48'1717.2
2014-Sep-25 03:33N 33°58' W 119°06'1717.0
2014-Sep-25 02:33N 34°05' W 119°25'1515.3
2014-Sep-25 01:33N 34°13' W 119°41'11 8.4
2014-Sep-25 00:16N 34°24' W 119°41'0 0.0
2014-Sep-24 23:31N 34°24' W 119°41'0 0.0
2014-Sep-24 22:33N 34°24' W 119°41'0 0.0
2014-Sep-24 21:30N 34°24' W 119°41'0 0.0
2014-Sep-24 20:32N 34°24' W 119°41'0 0.0
2014-Sep-24 19:29N 34°24' W 119°41'0 0.0
2014-Sep-24 17:04N 34°24' W 119°41'0 0.0
2014-Sep-24 16:33N 34°24' W 119°41'0 0.0
2014-Sep-24 15:30N 34°24' W 119°41'0 0.1
2014-Sep-24 14:33N 34°24' W 119°41'2 2.2
2014-Sep-24 13:33N 34°22' W 119°41'1010.0
2014-Sep-24 12:33N 34°19' W 119°53'1111.1
2014-Sep-24 11:33N 34°19' W 120°06'1010.2
2014-Sep-24 10:32N 34°17' W 120°18'1411.4
2014-Sep-24 09:18N 34°20' W 120°35'36 9.6
2014-Sep-24 05:33N 34°42' W 121°10'9 9.1
2014-Sep-24 04:33N 34°49' W 121°17'9 8.7
2014-Sep-24 03:33N 34°55' W 121°24'9 9.2
2014-Sep-24 02:33N 35°02' W 121°31'9 9.3
2014-Sep-24 01:33N 35°10' W 121°39'10 9.6
2014-Sep-24 00:33N 35°17' W 121°46'9 9.2
2014-Sep-23 23:33N 35°24' W 121°54'9 9.0
2014-Sep-23 22:32N 35°31' W 122°01'8 8.6
2014-Sep-23 21:33N 35°37' W 122°07'2 3.1
2014-Sep-23 21:00N 35°36' W 122°06'1124.3 300 / 111024.710.8 0.522.518.618.0
2014-Sep-23 20:33N 35°44' W 122°14'9 8.9
2014-Sep-23 19:33N 35°51' W 122°21'9 8.9
2014-Sep-23 18:33N 35°58' W 122°28'9 9.1
2014-Sep-23 17:33N 36°05' W 122°36'9 8.9
2014-Sep-23 16:33N 36°12' W 122°43'9 8.9
2014-Sep-23 15:33N 36°19' W 122°50'11 9.5
2014-Sep-23 14:22N 36°27' W 122°59'7 9.1
2014-Sep-23 13:33N 36°35' W 122°59'9 9.5
2014-Sep-23 12:33N 36°44' W 122°57'10 9.6
2014-Sep-23 11:33N 36°53' W 122°56'1010.1
2014-Sep-23 10:33N 37°03' W 122°53'1313.2
2014-Sep-23 09:33N 37°15' W 122°46'1312.9
2014-Sep-23 08:33N 37°28' W 122°43'1313.1
2014-Sep-23 07:33N 37°41' W 122°43'1111.4
2014-Sep-23 06:34N 37°48' W 122°32'6 5.9
2014-Sep-23 05:33N 37°48' W 122°24'0 0.0
2014-Sep-23 04:33N 37°48' W 122°24'0 0.0
2014-Sep-23 03:27N 37°48' W 122°24'0 0.0
2014-Sep-23 02:32N 37°48' W 122°24'0 0.0
2014-Sep-23 01:32N 37°48' W 122°24'0 0.0
2014-Sep-23 00:31N 37°48' W 122°24'0 0.0
2014-Sep-22 23:31N 37°48' W 122°24'0 0.0
2014-Sep-22 22:33N 37°48' W 122°24'0 0.0
2014-Sep-22 21:33N 37°48' W 122°24'0 0.0
2014-Sep-22 20:33N 37°48' W 122°24'0 0.0
2014-Sep-22 19:26N 37°48' W 122°24'0 0.0
2014-Sep-22 18:32N 37°48' W 122°24'0 0.0
2014-Sep-22 17:31N 37°48' W 122°24'0 0.0
2014-Sep-22 16:31N 37°48' W 122°24'0 0.0
2014-Sep-22 15:33N 37°48' W 122°24'0 0.0
2014-Sep-22 14:33N 37°48' W 122°24'0 0.0
2014-Sep-22 13:33N 37°48' W 122°24'4 4.2
2014-Sep-22 12:34N 37°49' W 122°29'1111.3
2014-Sep-22 11:33N 37°42' W 122°41'1211.2
2014-Sep-22 10:31N 37°30' W 122°40'  

Dump ship's entire track history